الصفحة الرئيسية
METAR-TAF:

METAR-TAF

مطار :

Telluride, كولورادو, الولايات المتحدة

Telluride Regional Airport

دائرة عرض: 37-57-14N, خط طول: 107-54-31W, ارتفاع: 2767 متر

مراقبة الطقس الحالي

تاريخ ووقت الإصدار 12 دقيقة قبل الساعة 15:55UTC
رياح هادئة
درجة الحرارة 9°درجة مئوية
الرطوبة 13%
ضغط 1028 hPa
الرؤية: 16.1 كم
سماء صافية

METAR: KTEX 251555Z AUTO 00000KT 10SM CLR 09/M18 A3036 RMK AO2 T00891180

زمن: 10:07 (16:07 UTC)

توقعات

تاريخ ووقت الإصدار 4ساعات و 47 دقيقة قبل الساعة 11:20UTC
التوقعات صالحة من25 الساعة 12 UTC إلى 26 الساعة 12 UTC
ريح 6 عقدة من الشرق
الرؤية: 10 كم
سماء صافية
من 25 الساعة 1700 UTC
ريح 4 عقدة من الغرب/الجنوب الغربي
الرؤية: 10 كم
سماء صافية
من 25 الساعة 2100 UTC
ريح 8 عقدة من الغرب
الرؤية: 10 كم
سماء صافية
من 26 الساعة 0300 UTC
ريح 3 عقدةمن اتجاهات متغيرة
الرؤية: 10 كم
سماء صافية

TAF: KTEX 251120Z 2512/2612 10006KT P6SM SKC FM251700 24004KT P6SM SKC FM252100 28008KT P6SM SKC FM260300 VRB03KT P6SM SKC

أرصاد الطقس والتوقعات من أكثر من 4000 مطار (تقارير الطقس للمطار METAR والتنبؤ بالطقس بالمطارTAF).

المحطات المتاحة هي النقط الصفراء والحمراء على الخريطة.

حرك المؤشر فوق النقطة لمعرفة اسم المحطة.

ثم انقر لمعرفة أرصاد وتوقعات الطقس.

لتغيير الخارطة: اضغط على الأزرار الخضراء مع رمز الصليب الأسود للتكبير. على الزر الأخضر مع شرطة للتصغير، أو على الأسهم الخضراء للخرائط المجاورة.


METAR-TAF: